West Chazy, NY

3:08 AM EST on December 22, 2014 (GMT -0500)
BCSD WxStation | Change Station
CLOSE
Current Station
Personal Weather Station
Location: West Chazy, NY
Elevation: 255 ft
Nearby Weather Stations

Elev 255 ft 44.77 °N, 73.49 °W | Updated 3 minutes ago

Overcast
Overcast
19.4 °F
Feels Like 14 °F
N
4.0
Wind Variable Wind from NNE
Gusts 7.0 mph

Today
High -- | Low -- °F
--% Chance of Precip.
Yesterday
High -- | Low -- °F
Precip. -- in
7:28 AM 4:16 PM
New Moon, 0% visible
Pressure 30.40 in
Visibility 5.0 miles
Clouds Overcast 700 ft
Windchill 14 °F
Dew Point 17 °F
Humidity 92%
Rainfall 0.00 in
Snow Depth Not available.
UV 0.0 out of 12
Pollen .10 out of 12
Air Quality Not available.
Flu Activity Not available.
METAR KPBG 220753Z AUTO 00000KT 5SM BR OVC007 M05/M07 A3038 RMK AO2 SLP294 T10501067

More Conditions Fewer Conditions

Pressure 30.40 in
Visibility 5.0 miles
Clouds Overcast 700 ft
Windchill 14 °F
Dew Point 17 °F
Humidity 92%
Rainfall 0.00 in
Snow Depth Not available.
UV 0.0 out of 12
Pollen .10 out of 12
Air Quality Not available.
Flu Activity Not available.
METAR KPBG 220753Z AUTO 00000KT 5SM BR OVC007 M05/M07 A3038 RMK AO2 SLP294 T10501067

More Conditions Fewer Conditions

10-Day Weather Forecast

Almanac

Astronomy

Dec. 22, 2014 Rise Set
Actual Time
Civil Twilight
Nautical Twilight
Astronomical Twilight
Moon
Length of Visible Light
Length of Day
Tomorrow will be .
, % of the Moon is Illuminated

Today's Extremes

State Highs State Lows

Community

WunderPhotos

Upload Photos

1,779,564 photos uploaded!

WunderBlogs® & News

Nearby

Air Quality

  Air Quality AQ Index Pollutant
Not available.

Snow Depth

Station Depth Elevation

Earthquake Activity

City Distance Mag. Time & Date
Minimum magnitude displayed is 2.5.

Coastal Water Temperatures

Place Temperature

Nearby Weather Stations